createdAt,value
2018-02-09T00:02:02.238Z,-0.80
2018-02-09T00:04:29.890Z,-0.70
2018-02-09T00:06:57.539Z,-0.60
2018-02-09T00:09:26.097Z,-0.40
2018-02-09T00:11:54.468Z,-0.40
2018-02-09T00:14:22.113Z,-0.30
2018-02-09T00:16:50.729Z,-0.30
2018-02-09T00:19:19.209Z,-0.30
2018-02-09T00:21:46.854Z,-0.40
2018-02-09T00:24:15.002Z,-0.50
2018-02-09T00:26:42.658Z,-0.50
2018-02-09T00:29:10.296Z,-0.60
2018-02-09T00:31:38.017Z,-0.60
2018-02-09T00:34:05.659Z,-0.80
2018-02-09T00:36:33.301Z,-0.60
2018-02-09T00:41:28.653Z,-0.50
2018-02-09T00:43:56.312Z,-0.70
2018-02-09T00:46:25.265Z,-0.70
2018-02-09T00:48:52.890Z,-0.70
2018-02-09T00:51:20.535Z,-0.70
2018-02-09T00:53:48.247Z,-0.60
2018-02-09T00:56:15.888Z,-0.50
2018-02-09T00:58:43.528Z,-0.60
2018-02-09T01:01:11.276Z,-0.60
2018-02-09T01:03:39.020Z,-0.70
2018-02-09T01:06:06.647Z,-0.80
2018-02-09T01:08:34.354Z,-0.80
2018-02-09T01:13:41.192Z,-0.50
2018-02-09T01:16:09.558Z,-0.40
2018-02-09T01:18:40.974Z,-0.30
2018-02-09T01:21:08.606Z,-0.20
2018-02-09T01:23:36.258Z,-0.20
2018-02-09T01:26:04.850Z,-0.30
2018-02-09T01:28:32.572Z,-0.50
2018-02-09T01:31:00.216Z,-0.60
2018-02-09T01:33:29.142Z,-0.60
2018-02-09T01:35:57.831Z,-0.80
2018-02-09T01:38:25.469Z,-0.90
2018-02-09T01:40:53.130Z,-0.80
2018-02-09T01:43:20.833Z,-0.60
2018-02-09T01:45:48.471Z,-0.60
2018-02-09T01:48:16.108Z,-0.60
2018-02-09T01:50:43.858Z,-0.60
2018-02-09T01:53:12.418Z,-0.70
2018-02-09T01:55:41.029Z,-0.50
2018-02-09T01:58:08.757Z,-0.50
2018-02-09T02:00:36.401Z,-0.40
2018-02-09T02:03:04.038Z,-0.40
2018-02-09T02:05:31.749Z,-0.40
2018-02-09T02:07:59.477Z,-0.40
2018-02-09T02:10:27.116Z,-0.50
2018-02-09T02:12:54.832Z,-0.50
2018-02-09T02:15:22.994Z,-0.50
2018-02-09T02:17:50.628Z,-0.50
2018-02-09T02:20:18.354Z,-0.40
2018-02-09T02:22:45.989Z,-0.30
2018-02-09T02:25:14.574Z,-0.30
2018-02-09T02:27:43.223Z,-0.20
2018-02-09T02:32:52.979Z,-0.20
2018-02-09T02:37:49.183Z,0.00
2018-02-09T02:40:16.903Z,0.00
2018-02-09T02:42:44.550Z,0.10
2018-02-09T02:47:40.837Z,-0.10
2018-02-09T02:50:08.471Z,-0.10
2018-02-09T02:52:36.112Z,-0.10
2018-02-09T02:55:04.649Z,-0.20
2018-02-09T02:57:32.282Z,-0.40
2018-02-09T03:00:01.960Z,-0.40
2018-02-09T03:02:29.600Z,-0.30
2018-02-09T03:04:58.073Z,-0.40
2018-02-09T03:07:25.758Z,-0.40
2018-02-09T03:09:53.603Z,-0.30
2018-02-09T03:12:21.257Z,-0.30
2018-02-09T03:14:48.893Z,-0.20
2018-02-09T03:17:16.612Z,-0.20
2018-02-09T03:19:44.269Z,-0.20
2018-02-09T03:22:11.912Z,-0.10
2018-02-09T03:24:39.609Z,-0.10
2018-02-09T03:27:07.248Z,0.00
2018-02-09T03:29:34.896Z,0.00
2018-02-09T03:32:02.624Z,0.00
2018-02-09T03:34:30.279Z,0.00
2018-02-09T03:36:57.936Z,-0.10
2018-02-09T03:39:25.892Z,0.00
2018-02-09T03:41:54.168Z,-0.10
2018-02-09T03:44:21.831Z,-0.20
2018-02-09T03:46:49.537Z,-0.20
2018-02-09T03:49:17.183Z,-0.20
2018-02-09T03:51:44.817Z,-0.10
2018-02-09T03:56:51.625Z,-0.10
2018-02-09T03:59:19.329Z,0.10
2018-02-09T04:04:14.628Z,0.00
2018-02-09T04:06:42.381Z,-0.20
2018-02-09T04:09:10.714Z,-0.30
2018-02-09T04:11:38.804Z,-0.40
2018-02-09T04:14:06.514Z,-0.40
2018-02-09T04:19:01.888Z,-0.40
2018-02-09T04:21:29.590Z,-0.60
2018-02-09T04:23:57.233Z,-0.60
2018-02-09T04:26:24.883Z,-0.60
2018-02-09T04:28:52.605Z,-0.50
2018-02-09T04:31:21.096Z,-0.40
2018-02-09T04:33:48.732Z,-0.40
2018-02-09T04:36:16.500Z,-0.30
2018-02-09T04:41:12.516Z,-0.20
2018-02-09T04:43:40.237Z,-0.20
2018-02-09T04:46:07.881Z,-0.10
2018-02-09T04:48:35.532Z,-0.10
2018-02-09T04:51:03.220Z,-0.10
2018-02-09T04:53:30.890Z,-0.10
2018-02-09T04:55:58.528Z,-0.10
2018-02-09T04:58:26.250Z,-0.10
2018-02-09T05:00:54.388Z,-0.10
2018-02-09T05:03:22.882Z,-0.10
2018-02-09T05:05:50.581Z,-0.10
2018-02-09T05:08:18.237Z,-0.10
2018-02-09T05:10:45.885Z,-0.10
2018-02-09T05:13:14.504Z,-0.10
2018-02-09T05:18:21.296Z,-0.10
2018-02-09T05:20:48.937Z,0.00
2018-02-09T05:23:17.554Z,0.00
2018-02-09T05:25:45.250Z,0.10
2018-02-09T05:28:12.904Z,0.10
2018-02-09T05:30:40.546Z,0.10
2018-02-09T05:33:10.113Z,0.10
2018-02-09T05:35:37.734Z,0.00
2018-02-09T05:38:07.185Z,-0.10
2018-02-09T05:40:34.901Z,-0.10
2018-02-09T05:43:02.531Z,0.00
2018-02-09T05:45:30.190Z,-0.10
2018-02-09T05:47:58.385Z,-0.20
2018-02-09T05:50:25.983Z,-0.30
2018-02-09T05:52:53.658Z,-0.70
2018-02-09T05:57:48.950Z,-0.60
2018-02-09T06:00:16.601Z,-0.60
2018-02-09T06:07:48.731Z,-0.40
2018-02-09T06:10:16.395Z,-0.40
2018-02-09T06:12:44.047Z,-0.50
2018-02-09T06:15:12.164Z,-0.50
2018-02-09T06:17:39.837Z,-0.50
2018-02-09T06:20:08.404Z,-0.60
2018-02-09T06:22:36.128Z,-0.60
2018-02-09T06:25:03.783Z,-0.60
2018-02-09T06:27:31.460Z,-0.60
2018-02-09T06:32:54.514Z,-0.70
2018-02-09T06:35:22.979Z,-0.70
2018-02-09T06:37:50.628Z,-0.80
2018-02-09T06:40:18.321Z,-0.80
2018-02-09T06:42:45.970Z,-0.80
2018-02-09T06:47:54.481Z,-0.90
2018-02-09T06:52:51.541Z,-0.80
2018-02-09T06:57:52.293Z,-0.80
2018-02-09T07:02:48.590Z,-1.10
2018-02-09T07:05:17.185Z,-1.30
2018-02-09T07:07:45.844Z,-1.20
2018-02-09T07:10:13.477Z,-1.30
2018-02-09T07:12:41.123Z,-1.10
2018-02-09T07:15:08.864Z,-1.00
2018-02-09T07:17:36.534Z,-1.00
2018-02-09T07:22:31.953Z,-0.80
2018-02-09T07:25:00.733Z,-0.80
2018-02-09T07:27:28.342Z,-0.80
2018-02-09T07:29:56.032Z,-0.70
2018-02-09T07:32:23.675Z,-0.70
2018-02-09T07:34:52.745Z,-0.60
2018-02-09T07:39:48.072Z,-0.40
2018-02-09T07:42:15.777Z,-0.60
2018-02-09T07:44:43.998Z,-0.60
2018-02-09T07:47:11.644Z,-0.40
2018-02-09T07:49:39.285Z,-0.50
2018-02-09T07:52:07.034Z,-0.40
2018-02-09T07:54:34.675Z,-0.20
2018-02-09T07:57:02.325Z,-0.10
2018-02-09T07:59:30.884Z,-0.70
2018-02-09T08:01:58.532Z,-0.60
2018-02-09T08:04:26.959Z,-0.60
2018-02-09T08:06:54.647Z,-0.40
2018-02-09T08:09:23.509Z,-0.40
2018-02-09T08:14:30.331Z,-0.30
2018-02-09T08:16:57.982Z,-0.30
2018-02-09T08:19:25.653Z,-0.10
2018-02-09T08:21:53.753Z,-0.20
2018-02-09T08:24:22.074Z,-0.20
2018-02-09T08:26:49.643Z,-0.50
2018-02-09T08:29:17.357Z,-0.40
2018-02-09T08:31:44.996Z,-0.40
2018-02-09T08:34:12.649Z,-0.40
2018-02-09T08:36:40.376Z,-0.40
2018-02-09T08:39:08.005Z,-0.10
2018-02-09T08:44:03.406Z,0.00
2018-02-09T08:46:31.669Z,0.00
2018-02-09T08:48:59.293Z,-0.30
2018-02-09T08:51:26.995Z,-0.20
2018-02-09T08:53:54.691Z,-0.20
2018-02-09T08:56:22.313Z,-0.20
2018-02-09T08:58:50.012Z,0.40
2018-02-09T09:03:57.371Z,0.90
2018-02-09T09:06:25.008Z,1.40
2018-02-09T09:08:52.666Z,1.30
2018-02-09T09:11:20.368Z,1.40
2018-02-09T09:13:48.009Z,1.90
2018-02-09T09:18:44.140Z,0.80
2018-02-09T09:21:11.718Z,1.70
2018-02-09T09:23:39.374Z,1.50
2018-02-09T09:28:35.020Z,2.20
2018-02-09T09:31:03.497Z,2.40
2018-02-09T09:33:31.197Z,2.40
2018-02-09T09:35:58.857Z,2.90
2018-02-09T09:38:26.550Z,3.00
2018-02-09T09:40:54.265Z,3.10
2018-02-09T09:43:21.904Z,3.20
2018-02-09T09:45:49.548Z,2.50
2018-02-09T09:48:17.254Z,3.40
2018-02-09T09:50:44.902Z,3.70
2018-02-09T09:53:12.541Z,4.30
2018-02-09T09:55:40.251Z,4.20
2018-02-09T09:58:07.881Z,4.60
2018-02-09T10:00:35.548Z,4.80
2018-02-09T10:03:03.233Z,4.90
2018-02-09T10:05:30.909Z,4.30
2018-02-09T10:07:59.403Z,3.80
2018-02-09T10:10:27.154Z,3.50
2018-02-09T10:12:55.262Z,4.00
2018-02-09T10:15:22.897Z,3.60
2018-02-09T10:17:50.605Z,3.60
2018-02-09T10:20:18.268Z,3.70
2018-02-09T10:22:45.908Z,3.80
2018-02-09T10:27:55.480Z,4.40
2018-02-09T10:30:23.201Z,4.70
2018-02-09T10:32:50.845Z,3.90
2018-02-09T10:35:18.479Z,3.90
2018-02-09T10:37:46.226Z,3.90
2018-02-09T10:40:13.830Z,3.70
2018-02-09T10:42:41.472Z,3.80
2018-02-09T10:45:09.178Z,4.20
2018-02-09T10:47:36.832Z,3.40
2018-02-09T10:52:43.490Z,3.70
2018-02-09T10:55:11.609Z,3.50
2018-02-09T10:57:39.331Z,3.50
2018-02-09T11:05:02.316Z,4.10
2018-02-09T11:07:30.012Z,4.70
2018-02-09T11:09:57.679Z,5.00
2018-02-09T11:12:25.312Z,4.50
2018-02-09T11:14:53.006Z,5.30
2018-02-09T11:17:20.721Z,4.10
2018-02-09T11:19:48.330Z,4.40
2018-02-09T11:22:16.025Z,4.20
2018-02-09T11:24:43.685Z,4.40
2018-02-09T11:27:11.304Z,5.10
2018-02-09T11:29:39.029Z,5.80
2018-02-09T11:32:06.657Z,6.50
2018-02-09T11:34:34.294Z,6.40
2018-02-09T11:37:01.994Z,6.90
2018-02-09T11:39:29.640Z,6.10
2018-02-09T11:41:57.290Z,5.50
2018-02-09T11:44:24.991Z,5.70
2018-02-09T11:46:52.639Z,5.50
2018-02-09T11:49:20.270Z,5.40
2018-02-09T11:51:47.994Z,5.90
2018-02-09T11:54:15.635Z,6.20
2018-02-09T11:56:43.285Z,6.80
2018-02-09T11:59:10.983Z,7.70
2018-02-09T12:01:38.648Z,8.30
2018-02-09T12:04:06.823Z,8.20
2018-02-09T12:06:34.517Z,8.00
2018-02-09T12:09:02.208Z,8.00
2018-02-09T12:11:29.817Z,8.20
2018-02-09T12:16:36.632Z,7.70
2018-02-09T12:19:04.345Z,7.90
2018-02-09T12:21:31.991Z,6.80
2018-02-09T12:23:59.633Z,6.50
2018-02-09T12:26:27.849Z,6.30
2018-02-09T12:28:56.444Z,6.10
2018-02-09T12:31:24.084Z,6.60
2018-02-09T12:33:51.788Z,7.50
2018-02-09T12:36:19.429Z,7.60
2018-02-09T12:38:47.065Z,7.70
2018-02-09T12:41:14.764Z,7.60
2018-02-09T12:43:42.416Z,7.80
2018-02-09T12:46:10.046Z,8.00
2018-02-09T12:48:37.761Z,8.20
2018-02-09T12:51:05.408Z,8.40
2018-02-09T12:53:33.045Z,7.00
2018-02-09T12:56:00.736Z,7.40
2018-02-09T12:58:28.401Z,7.40
2018-02-09T13:00:56.038Z,7.90
2018-02-09T13:03:24.327Z,8.20
2018-02-09T13:05:51.965Z,7.90
2018-02-09T13:08:19.719Z,7.60
2018-02-09T13:10:47.347Z,8.50
2018-02-09T13:13:14.978Z,8.00
2018-02-09T13:15:42.634Z,7.70
2018-02-09T13:18:22.021Z,8.60
2018-02-09T13:20:49.658Z,7.60
2018-02-09T13:25:50.843Z,7.10
2018-02-09T13:28:30.308Z,7.50
2018-02-09T13:30:57.941Z,8.20
2018-02-09T13:36:15.090Z,8.50
2018-02-09T13:38:42.734Z,8.60
2018-02-09T13:41:10.374Z,8.40
2018-02-09T13:43:38.082Z,8.10
2018-02-09T13:46:05.721Z,7.70
2018-02-09T13:48:33.357Z,7.40
2018-02-09T13:51:01.061Z,7.70
2018-02-09T13:53:28.726Z,7.70
2018-02-09T13:55:56.364Z,8.50
2018-02-09T13:58:24.963Z,9.20
2018-02-09T14:00:53.551Z,8.20
2018-02-09T14:03:21.224Z,8.20
2018-02-09T14:05:48.916Z,8.30
2018-02-09T14:08:16.564Z,8.50
2018-02-09T14:10:45.394Z,8.50
2018-02-09T14:13:13.242Z,8.40
2018-02-09T14:15:40.917Z,8.30
2018-02-09T14:18:08.577Z,8.80
2018-02-09T14:20:36.352Z,7.80
2018-02-09T14:23:03.993Z,7.50
2018-02-09T14:25:32.480Z,7.80
2018-02-09T14:28:00.209Z,7.70
2018-02-09T14:30:27.855Z,7.50
2018-02-09T14:32:55.484Z,7.60
2018-02-09T14:35:23.190Z,7.30
2018-02-09T14:37:51.719Z,7.40
2018-02-09T14:40:19.344Z,7.30
2018-02-09T14:42:47.065Z,6.80
2018-02-09T14:45:14.692Z,6.60
2018-02-09T14:47:42.341Z,6.40
2018-02-09T14:50:10.054Z,6.20
2018-02-09T14:55:16.846Z,5.90
2018-02-09T14:57:44.494Z,6.00
2018-02-09T15:00:12.142Z,6.10
2018-02-09T15:02:40.485Z,5.90
2018-02-09T15:05:08.167Z,6.00
2018-02-09T15:07:35.789Z,6.10
2018-02-09T15:12:31.189Z,5.50
2018-02-09T15:14:59.785Z,5.50
2018-02-09T15:17:27.472Z,5.40
2018-02-09T15:19:55.116Z,5.30
2018-02-09T15:22:22.778Z,5.00
2018-02-09T15:24:50.492Z,5.20
2018-02-09T15:27:18.135Z,5.10
2018-02-09T15:29:45.778Z,5.00
2018-02-09T15:32:13.482Z,5.00
2018-02-09T15:34:41.867Z,4.80
2018-02-09T15:37:09.521Z,4.70
2018-02-09T15:39:37.203Z,4.60
2018-02-09T15:42:05.697Z,4.40
2018-02-09T15:44:33.356Z,4.30
2018-02-09T15:49:28.716Z,4.20
2018-02-09T15:51:57.188Z,4.20
2018-02-09T15:54:24.904Z,4.20
2018-02-09T15:56:52.533Z,4.10
2018-02-09T15:59:20.297Z,4.10
2018-02-09T16:01:47.989Z,3.90
2018-02-09T16:04:16.466Z,4.00
2018-02-09T16:06:44.101Z,3.90
2018-02-09T16:09:11.799Z,3.90
2018-02-09T16:11:39.438Z,3.80
2018-02-09T16:14:07.081Z,3.70
2018-02-09T16:16:35.734Z,3.60
2018-02-09T16:21:44.857Z,3.60
2018-02-09T16:26:40.287Z,3.40
2018-02-09T16:29:08.004Z,3.50
2018-02-09T16:31:36.481Z,3.40
2018-02-09T16:34:04.118Z,3.30
2018-02-09T16:36:31.811Z,3.20
2018-02-09T16:39:00.400Z,3.20
2018-02-09T16:41:28.063Z,3.30
2018-02-09T16:43:55.790Z,3.20
2018-02-09T16:46:23.465Z,3.20
2018-02-09T16:48:51.994Z,3.10
2018-02-09T16:53:47.341Z,2.90
2018-02-09T16:56:16.041Z,2.80
2018-02-09T16:58:43.741Z,2.70
2018-02-09T17:01:11.397Z,2.70
2018-02-09T17:03:39.052Z,2.70
2018-02-09T17:06:06.740Z,2.60
2018-02-09T17:08:35.113Z,2.60
2018-02-09T17:11:02.785Z,2.60
2018-02-09T17:13:30.493Z,2.60
2018-02-09T17:16:00.607Z,2.70
2018-02-09T17:18:28.253Z,2.60
2018-02-09T17:20:56.819Z,2.50
2018-02-09T17:23:24.468Z,2.40
2018-02-09T17:25:52.121Z,2.50
2018-02-09T17:30:48.230Z,2.30
2018-02-09T17:33:20.127Z,2.20
2018-02-09T17:35:48.369Z,2.20
2018-02-09T17:38:15.853Z,2.20
2018-02-09T17:40:43.508Z,2.10
2018-02-09T17:45:50.324Z,2.00
2018-02-09T17:48:18.048Z,2.00
2018-02-09T17:50:45.686Z,2.00
2018-02-09T17:53:13.338Z,2.00
2018-02-09T17:55:41.033Z,2.00
2018-02-09T17:58:09.768Z,2.00
2018-02-09T18:00:37.394Z,2.00
2018-02-09T18:03:05.957Z,1.90
2018-02-09T18:05:34.349Z,2.00
2018-02-09T18:10:29.705Z,1.80
2018-02-09T18:12:57.356Z,1.70
2018-02-09T18:15:25.934Z,1.70
2018-02-09T18:17:53.635Z,1.60
2018-02-09T18:20:21.346Z,1.60
2018-02-09T18:22:49.012Z,1.60
2018-02-09T18:25:16.730Z,1.60
2018-02-09T18:27:44.435Z,1.60
2018-02-09T18:30:12.101Z,1.60
2018-02-09T18:32:40.813Z,1.70
2018-02-09T18:35:08.413Z,1.70
2018-02-09T18:42:33.037Z,1.50
2018-02-09T18:45:00.715Z,1.40
2018-02-09T18:47:28.667Z,1.40
2018-02-09T18:49:56.284Z,1.30
2018-02-09T18:52:23.930Z,1.40
2018-02-09T18:54:51.679Z,1.40
2018-02-09T18:57:19.319Z,1.40
2018-02-09T18:59:46.958Z,1.30
2018-02-09T19:02:14.657Z,1.30
2018-02-09T19:07:22.345Z,1.10
2018-02-09T19:12:17.646Z,1.30
2018-02-09T19:14:45.378Z,1.30
2018-02-09T19:17:13.020Z,1.30
2018-02-09T19:19:40.653Z,1.20
2018-02-09T19:22:08.357Z,1.20
2018-02-09T19:24:36.045Z,1.00
2018-02-09T19:27:03.690Z,0.80
2018-02-09T19:29:31.400Z,0.90
2018-02-09T19:31:59.028Z,0.80
2018-02-09T19:34:26.674Z,0.90
2018-02-09T19:36:54.450Z,0.90
2018-02-09T19:39:22.158Z,0.90
2018-02-09T19:41:49.801Z,1.00
2018-02-09T19:46:45.132Z,1.10
2018-02-09T19:49:12.830Z,1.00
2018-02-09T19:54:08.145Z,1.00
2018-02-09T19:56:35.777Z,0.80
2018-02-09T19:59:03.507Z,0.70
2018-02-09T20:01:32.018Z,0.80
2018-02-09T20:03:59.667Z,0.80
2018-02-09T20:08:55.886Z,0.70
2018-02-09T20:11:23.522Z,0.60
2018-02-09T20:13:51.254Z,0.60
2018-02-09T20:16:19.273Z,0.70
2018-02-09T20:18:46.840Z,0.70
2018-02-09T20:21:14.639Z,0.70
2018-02-09T20:26:22.065Z,0.70
2018-02-09T20:28:52.017Z,0.70
2018-02-09T20:31:17.730Z,0.80
2018-02-09T20:36:13.033Z,0.60
2018-02-09T20:38:40.916Z,0.60
2018-02-09T20:41:08.572Z,0.60
2018-02-09T20:43:36.221Z,0.70
2018-02-09T20:46:03.864Z,0.70
2018-02-09T20:48:31.565Z,0.50
2018-02-09T20:50:59.358Z,0.40
2018-02-09T20:53:26.993Z,0.40
2018-02-09T20:55:55.253Z,0.60
2018-02-09T20:58:22.878Z,0.70
2018-02-09T21:00:50.544Z,0.60
2018-02-09T21:03:18.336Z,0.50
2018-02-09T21:08:13.590Z,0.50
2018-02-09T21:10:41.328Z,0.50
2018-02-09T21:13:09.592Z,0.50
2018-02-09T21:15:38.091Z,0.60
2018-02-09T21:18:05.793Z,0.50
2018-02-09T21:20:33.430Z,0.50
2018-02-09T21:23:01.170Z,0.50
2018-02-09T21:25:28.815Z,0.40
2018-02-09T21:27:56.460Z,0.50
2018-02-09T21:30:24.485Z,0.40
2018-02-09T21:32:52.188Z,0.40
2018-02-09T21:35:19.827Z,0.40
2018-02-09T21:37:47.466Z,0.50
2018-02-09T21:40:15.176Z,0.40
2018-02-09T21:42:42.831Z,0.40
2018-02-09T21:45:11.415Z,0.50
2018-02-09T21:47:39.149Z,0.50
2018-02-09T21:50:06.786Z,0.40
2018-02-09T21:55:13.569Z,0.50
2018-02-09T21:57:41.221Z,0.50
2018-02-09T22:02:36.548Z,0.40
2018-02-09T22:05:04.195Z,0.30
2018-02-09T22:07:31.834Z,0.40
2018-02-09T22:09:59.530Z,0.40
2018-02-09T22:14:54.820Z,0.40
2018-02-09T22:17:22.746Z,0.50
2018-02-09T22:19:50.316Z,0.40
2018-02-09T22:22:18.404Z,0.40
2018-02-09T22:24:46.105Z,0.30
2018-02-09T22:29:41.405Z,0.40
2018-02-09T22:32:09.130Z,0.40
2018-02-09T22:34:36.798Z,0.40
2018-02-09T22:37:04.430Z,0.40
2018-02-09T22:39:32.136Z,0.30
2018-02-09T22:42:00.433Z,0.20
2018-02-09T22:46:55.774Z,0.30
2018-02-09T22:49:23.443Z,0.20
2018-02-09T22:51:51.098Z,0.20
2018-02-09T22:56:50.520Z,0.20
2018-02-09T22:59:18.234Z,0.20
2018-02-09T23:01:45.869Z,0.20
2018-02-09T23:04:13.516Z,0.10
2018-02-09T23:06:41.240Z,0.30
2018-02-09T23:11:40.639Z,0.30
2018-02-09T23:16:48.526Z,0.30
2018-02-09T23:19:16.294Z,0.20
2018-02-09T23:21:43.928Z,0.20
2018-02-09T23:24:12.459Z,0.20
2018-02-09T23:26:41.168Z,0.20
2018-02-09T23:29:08.748Z,0.20
2018-02-09T23:31:38.716Z,0.10
2018-02-09T23:34:07.844Z,0.10
2018-02-09T23:36:36.309Z,0.00
2018-02-09T23:39:03.961Z,-0.10
2018-02-09T23:41:32.510Z,-0.10
2018-02-09T23:44:00.155Z,-0.20
2018-02-09T23:46:30.833Z,-0.20
2018-02-09T23:48:58.532Z,-0.20
2018-02-09T23:51:26.181Z,-0.20
2018-02-09T23:53:54.256Z,-0.20
2018-02-09T23:56:24.156Z,-0.20
2018-02-09T23:58:52.338Z,-0.20
